Airport View

Enter AWOS ICAO identifier for current METAR.

ex. KFNL

KSHN 221753Z AUTO 22012G17KT 10SM CLR 21/11 A3003 RMK AO2 SLP167 T02110106 10217 20139 51005

22 Jul 2019 18:23

Frequency: 119.275

Phone: 360-427-3835

Other Area AWOS: KOLM - KPWT - KTIW - KGRF

TAF KOLM 221720Z 2218/2318 22008KT P6SM SKC FM230900 VRB03KT P6SM OVC020